sensor_id;sensor_type;location;lat;lon;timestamp;P1;durP1;ratioP1;P2;durP2;ratioP2
2618;SDS011;1319;52.346;13.096;2023-05-29T00:02:24;12.87;;;4.87;;
2618;SDS011;1319;52.346;13.096;2023-05-29T00:04:50;35.50;;;8.23;;
2618;SDS011;1319;52.346;13.096;2023-05-29T00:07:16;30.80;;;7.30;;
2618;SDS011;1319;52.346;13.096;2023-05-29T00:09:41;13.00;;;5.17;;
2618;SDS011;1319;52.346;13.096;2023-05-29T00:12:06;12.47;;;5.10;;
2618;SDS011;1319;52.346;13.096;2023-05-29T00:14:32;10.00;;;4.50;;
2618;SDS011;1319;52.346;13.096;2023-05-29T00:16:57;9.17;;;4.53;;
2618;SDS011;1319;52.346;13.096;2023-05-29T00:19:22;9.10;;;4.50;;
2618;SDS011;1319;52.346;13.096;2023-05-29T00:21:50;11.40;;;5.17;;
2618;SDS011;1319;52.346;13.096;2023-05-29T00:24:15;8.03;;;4.57;;
2618;SDS011;1319;52.346;13.096;2023-05-29T00:26:41;8.40;;;4.67;;
2618;SDS011;1319;52.346;13.096;2023-05-29T00:29:06;11.30;;;4.73;;
2618;SDS011;1319;52.346;13.096;2023-05-29T00:31:31;11.93;;;4.53;;
2618;SDS011;1319;52.346;13.096;2023-05-29T00:33:56;14.03;;;4.90;;
2618;SDS011;1319;52.346;13.096;2023-05-29T00:36:21;10.97;;;5.17;;
2618;SDS011;1319;52.346;13.096;2023-05-29T00:38:47;9.67;;;4.73;;
2618;SDS011;1319;52.346;13.096;2023-05-29T00:41:13;11.60;;;4.83;;
2618;SDS011;1319;52.346;13.096;2023-05-29T00:43:39;10.13;;;5.10;;
2618;SDS011;1319;52.346;13.096;2023-05-29T00:46:04;7.50;;;4.90;;
2618;SDS011;1319;52.346;13.096;2023-05-29T00:48:29;10.97;;;4.87;;
2618;SDS011;1319;52.346;13.096;2023-05-29T00:50:54;12.50;;;5.07;;
2618;SDS011;1319;52.346;13.096;2023-05-29T00:53:20;9.63;;;5.20;;
2618;SDS011;1319;52.346;13.096;2023-05-29T00:55:46;11.37;;;5.33;;
2618;SDS011;1319;52.346;13.096;2023-05-29T00:58:11;10.90;;;4.87;;
2618;SDS011;1319;52.346;13.096;2023-05-29T01:00:36;11.43;;;5.00;;
2618;SDS011;1319;52.346;13.096;2023-05-29T01:03:03;7.63;;;4.47;;
2618;SDS011;1319;52.346;13.096;2023-05-29T01:05:30;8.50;;;4.70;;
2618;SDS011;1319;52.346;13.096;2023-05-29T01:07:56;10.97;;;4.97;;
2618;SDS011;1319;52.346;13.096;2023-05-29T01:10:21;10.63;;;5.20;;
2618;SDS011;1319;52.346;13.096;2023-05-29T01:12:52;10.60;;;4.70;;
2618;SDS011;1319;52.346;13.096;2023-05-29T01:15:28;9.07;;;4.67;;
2618;SDS011;1319;52.346;13.096;2023-05-29T01:28:09;10.00;;;5.70;;
2618;SDS011;1319;52.346;13.096;2023-05-29T01:30:36;12.10;;;5.73;;
2618;SDS011;1319;52.346;13.096;2023-05-29T01:33:02;14.50;;;4.97;;
2618;SDS011;1319;52.346;13.096;2023-05-29T01:35:27;10.63;;;4.70;;
2618;SDS011;1319;52.346;13.096;2023-05-29T01:37:52;13.17;;;5.40;;
2618;SDS011;1319;52.346;13.096;2023-05-29T01:40:18;11.57;;;5.43;;
2618;SDS011;1319;52.346;13.096;2023-05-29T01:42:43;11.43;;;5.63;;
2618;SDS011;1319;52.346;13.096;2023-05-29T01:45:08;12.77;;;5.80;;
2618;SDS011;1319;52.346;13.096;2023-05-29T01:47:34;11.93;;;5.60;;
2618;SDS011;1319;52.346;13.096;2023-05-29T01:50:00;13.87;;;5.73;;
2618;SDS011;1319;52.346;13.096;2023-05-29T01:55:43;13.03;;;5.23;;
2618;SDS011;1319;52.346;13.096;2023-05-29T01:58:09;7.73;;;5.07;;
2618;SDS011;1319;52.346;13.096;2023-05-29T02:00:35;12.23;;;5.57;;
2618;SDS011;1319;52.346;13.096;2023-05-29T02:03:00;15.33;;;5.60;;
2618;SDS011;1319;52.346;13.096;2023-05-29T02:05:25;13.40;;;5.90;;
2618;SDS011;1319;52.346;13.096;2023-05-29T02:07:51;9.87;;;5.40;;
2618;SDS011;1319;52.346;13.096;2023-05-29T02:10:16;10.33;;;5.70;;
2618;SDS011;1319;52.346;13.096;2023-05-29T02:12:41;11.47;;;5.80;;
2618;SDS011;1319;52.346;13.096;2023-05-29T02:15:06;10.87;;;5.63;;
2618;SDS011;1319;52.346;13.096;2023-05-29T02:17:32;11.77;;;5.53;;
2618;SDS011;1319;52.346;13.096;2023-05-29T02:19:58;13.80;;;6.00;;
2618;SDS011;1319;52.346;13.096;2023-05-29T02:22:23;10.73;;;5.83;;
2618;SDS011;1319;52.346;13.096;2023-05-29T02:24:48;10.17;;;6.00;;
2618;SDS011;1319;52.346;13.096;2023-05-29T02:27:13;14.17;;;6.50;;
2618;SDS011;1319;52.346;13.096;2023-05-29T02:29:39;9.57;;;5.90;;
2618;SDS011;1319;52.346;13.096;2023-05-29T02:32:04;11.47;;;5.57;;
2618;SDS011;1319;52.346;13.096;2023-05-29T02:34:30;10.97;;;5.40;;
2618;SDS011;1319;52.346;13.096;2023-05-29T02:36:55;14.60;;;5.50;;
2618;SDS011;1319;52.346;13.096;2023-05-29T02:39:20;12.63;;;5.83;;
2618;SDS011;1319;52.346;13.096;2023-05-29T02:41:46;15.87;;;5.70;;
2618;SDS011;1319;52.346;13.096;2023-05-29T02:44:11;14.50;;;6.60;;
2618;SDS011;1319;52.346;13.096;2023-05-29T02:46:36;8.57;;;5.57;;
2618;SDS011;1319;52.346;13.096;2023-05-29T02:49:01;11.07;;;5.80;;
2618;SDS011;1319;52.346;13.096;2023-05-29T02:51:26;13.10;;;6.13;;
2618;SDS011;1319;52.346;13.096;2023-05-29T02:53:52;15.43;;;6.80;;
2618;SDS011;1319;52.346;13.096;2023-05-29T02:56:17;11.80;;;5.60;;
2618;SDS011;1319;52.346;13.096;2023-05-29T02:58:43;9.67;;;6.13;;
2618;SDS011;1319;52.346;13.096;2023-05-29T03:01:08;10.70;;;6.47;;
2618;SDS011;1319;52.346;13.096;2023-05-29T03:03:33;17.20;;;6.50;;
2618;SDS011;1319;52.346;13.096;2023-05-29T03:05:59;21.73;;;7.07;;
2618;SDS011;1319;52.346;13.096;2023-05-29T03:08:25;13.70;;;6.10;;
2618;SDS011;1319;52.346;13.096;2023-05-29T03:10:52;11.00;;;6.30;;
2618;SDS011;1319;52.346;13.096;2023-05-29T03:13:17;13.63;;;5.90;;
2618;SDS011;1319;52.346;13.096;2023-05-29T03:15:43;11.10;;;6.03;;
2618;SDS011;1319;52.346;13.096;2023-05-29T03:18:09;13.73;;;5.97;;
2618;SDS011;1319;52.346;13.096;2023-05-29T03:20:34;18.90;;;6.10;;
2618;SDS011;1319;52.346;13.096;2023-05-29T03:23:00;10.40;;;6.13;;
2618;SDS011;1319;52.346;13.096;2023-05-29T03:25:25;17.50;;;6.47;;
2618;SDS011;1319;52.346;13.096;2023-05-29T03:27:50;12.40;;;6.30;;
2618;SDS011;1319;52.346;13.096;2023-05-29T03:30:15;13.80;;;6.40;;
2618;SDS011;1319;52.346;13.096;2023-05-29T03:32:41;8.50;;;5.63;;
2618;SDS011;1319;52.346;13.096;2023-05-29T03:35:06;13.37;;;6.13;;
2618;SDS011;1319;52.346;13.096;2023-05-29T03:37:31;11.33;;;5.70;;
2618;SDS011;1319;52.346;13.096;2023-05-29T03:39:57;11.80;;;6.23;;
2618;SDS011;1319;52.346;13.096;2023-05-29T03:42:22;13.17;;;6.07;;
2618;SDS011;1319;52.346;13.096;2023-05-29T03:44:47;9.20;;;6.03;;
2618;SDS011;1319;52.346;13.096;2023-05-29T03:47:12;12.60;;;6.10;;
2618;SDS011;1319;52.346;13.096;2023-05-29T03:49:37;11.30;;;6.23;;
2618;SDS011;1319;52.346;13.096;2023-05-29T03:52:03;14.17;;;6.60;;
2618;SDS011;1319;52.346;13.096;2023-05-29T03:54:28;12.33;;;6.17;;
2618;SDS011;1319;52.346;13.096;2023-05-29T03:56:53;19.67;;;6.63;;
2618;SDS011;1319;52.346;13.096;2023-05-29T03:59:19;13.70;;;6.40;;
2618;SDS011;1319;52.346;13.096;2023-05-29T04:01:44;12.73;;;6.93;;
2618;SDS011;1319;52.346;13.096;2023-05-29T04:04:09;12.97;;;6.00;;
2618;SDS011;1319;52.346;13.096;2023-05-29T04:06:35;10.30;;;6.40;;
2618;SDS011;1319;52.346;13.096;2023-05-29T04:09:03;13.03;;;6.03;;
2618;SDS011;1319;52.346;13.096;2023-05-29T04:11:28;17.80;;;6.40;;
2618;SDS011;1319;52.346;13.096;2023-05-29T04:13:54;15.03;;;7.00;;
2618;SDS011;1319;52.346;13.096;2023-05-29T04:16:20;13.50;;;6.70;;
2618;SDS011;1319;52.346;13.096;2023-05-29T04:18:45;11.07;;;6.07;;
2618;SDS011;1319;52.346;13.096;2023-05-29T04:21:10;14.80;;;7.20;;
2618;SDS011;1319;52.346;13.096;2023-05-29T04:23:36;13.20;;;6.93;;
2618;SDS011;1319;52.346;13.096;2023-05-29T04:26:01;13.53;;;7.10;;
2618;SDS011;1319;52.346;13.096;2023-05-29T04:28:27;13.67;;;6.57;;
2618;SDS011;1319;52.346;13.096;2023-05-29T04:30:52;19.10;;;6.80;;
2618;SDS011;1319;52.346;13.096;2023-05-29T04:33:17;16.83;;;6.23;;
2618;SDS011;1319;52.346;13.096;2023-05-29T04:35:43;12.70;;;6.53;;
2618;SDS011;1319;52.346;13.096;2023-05-29T04:38:08;14.17;;;6.20;;
2618;SDS011;1319;52.346;13.096;2023-05-29T04:40:34;8.23;;;5.87;;
2618;SDS011;1319;52.346;13.096;2023-05-29T04:43:01;10.20;;;6.27;;
2618;SDS011;1319;52.346;13.096;2023-05-29T04:45:27;15.83;;;6.33;;
2618;SDS011;1319;52.346;13.096;2023-05-29T04:47:52;11.03;;;5.90;;
2618;SDS011;1319;52.346;13.096;2023-05-29T04:50:20;12.07;;;5.87;;
2618;SDS011;1319;52.346;13.096;2023-05-29T04:52:45;8.53;;;5.30;;
2618;SDS011;1319;52.346;13.096;2023-05-29T04:55:10;12.47;;;5.43;;
2618;SDS011;1319;52.346;13.096;2023-05-29T04:57:36;12.50;;;5.40;;
2618;SDS011;1319;52.346;13.096;2023-05-29T05:00:01;8.30;;;5.20;;
2618;SDS011;1319;52.346;13.096;2023-05-29T05:02:30;11.97;;;5.20;;
2618;SDS011;1319;52.346;13.096;2023-05-29T05:04:55;14.77;;;5.27;;
2618;SDS011;1319;52.346;13.096;2023-05-29T05:07:20;6.73;;;4.80;;
2618;SDS011;1319;52.346;13.096;2023-05-29T05:09:46;9.30;;;4.80;;
2618;SDS011;1319;52.346;13.096;2023-05-29T05:12:11;13.87;;;5.40;;
2618;SDS011;1319;52.346;13.096;2023-05-29T05:14:36;8.50;;;4.70;;
2618;SDS011;1319;52.346;13.096;2023-05-29T05:17:01;11.00;;;5.30;;
2618;SDS011;1319;52.346;13.096;2023-05-29T05:19:26;13.03;;;5.37;;
2618;SDS011;1319;52.346;13.096;2023-05-29T05:21:52;9.33;;;4.83;;
2618;SDS011;1319;52.346;13.096;2023-05-29T05:24:17;12.57;;;4.83;;
2618;SDS011;1319;52.346;13.096;2023-05-29T05:26:42;8.53;;;4.30;;
2618;SDS011;1319;52.346;13.096;2023-05-29T05:29:08;8.90;;;4.53;;
2618;SDS011;1319;52.346;13.096;2023-05-29T05:31:33;11.30;;;4.50;;
2618;SDS011;1319;52.346;13.096;2023-05-29T05:33:58;11.90;;;4.23;;
2618;SDS011;1319;52.346;13.096;2023-05-29T05:36:23;8.90;;;4.70;;
2618;SDS011;1319;52.346;13.096;2023-05-29T05:38:48;13.33;;;4.17;;
2618;SDS011;1319;52.346;13.096;2023-05-29T05:41:14;10.00;;;4.40;;
2618;SDS011;1319;52.346;13.096;2023-05-29T05:43:39;8.17;;;4.30;;
2618;SDS011;1319;52.346;13.096;2023-05-29T05:46:04;8.97;;;4.40;;
2618;SDS011;1319;52.346;13.096;2023-05-29T05:48:30;7.47;;;4.10;;
2618;SDS011;1319;52.346;13.096;2023-05-29T05:50:55;7.60;;;4.07;;
2618;SDS011;1319;52.346;13.096;2023-05-29T05:53:20;14.77;;;3.77;;
2618;SDS011;1319;52.346;13.096;2023-05-29T05:55:46;12.20;;;3.80;;
2618;SDS011;1319;52.346;13.096;2023-05-29T05:58:11;8.30;;;3.87;;
2618;SDS011;1319;52.346;13.096;2023-05-29T06:00:36;8.77;;;3.80;;
2618;SDS011;1319;52.346;13.096;2023-05-29T06:03:02;6.30;;;3.87;;
2618;SDS011;1319;52.346;13.096;2023-05-29T06:05:28;9.90;;;3.77;;
2618;SDS011;1319;52.346;13.096;2023-05-29T06:07:53;5.13;;;3.47;;
2618;SDS011;1319;52.346;13.096;2023-05-29T06:10:19;5.07;;;3.27;;
2618;SDS011;1319;52.346;13.096;2023-05-29T06:12:44;5.10;;;3.57;;
2618;SDS011;1319;52.346;13.096;2023-05-29T06:15:10;13.33;;;3.80;;
2618;SDS011;1319;52.346;13.096;2023-05-29T06:17:35;4.87;;;3.63;;
2618;SDS011;1319;52.346;13.096;2023-05-29T06:20:00;8.13;;;4.00;;
2618;SDS011;1319;52.346;13.096;2023-05-29T06:22:25;6.53;;;3.77;;
2618;SDS011;1319;52.346;13.096;2023-05-29T06:24:51;6.63;;;3.77;;
2618;SDS011;1319;52.346;13.096;2023-05-29T06:27:16;5.90;;;3.37;;
2618;SDS011;1319;52.346;13.096;2023-05-29T06:29:42;6.23;;;3.37;;
2618;SDS011;1319;52.346;13.096;2023-05-29T06:32:08;4.20;;;3.20;;
2618;SDS011;1319;52.346;13.096;2023-05-29T06:34:33;3.53;;;2.93;;
2618;SDS011;1319;52.346;13.096;2023-05-29T06:36:58;5.17;;;3.00;;
2618;SDS011;1319;52.346;13.096;2023-05-29T06:39:23;5.97;;;3.07;;
2618;SDS011;1319;52.346;13.096;2023-05-29T06:41:49;7.10;;;2.93;;
2618;SDS011;1319;52.346;13.096;2023-05-29T06:44:14;5.00;;;2.83;;
2618;SDS011;1319;52.346;13.096;2023-05-29T06:46:39;8.07;;;3.10;;
2618;SDS011;1319;52.346;13.096;2023-05-29T06:49:05;5.80;;;3.30;;
2618;SDS011;1319;52.346;13.096;2023-05-29T06:51:30;6.53;;;3.40;;
2618;SDS011;1319;52.346;13.096;2023-05-29T06:53:57;4.37;;;2.57;;
2618;SDS011;1319;52.346;13.096;2023-05-29T06:56:22;4.07;;;2.97;;
2618;SDS011;1319;52.346;13.096;2023-05-29T06:58:48;4.03;;;2.80;;
2618;SDS011;1319;52.346;13.096;2023-05-29T07:01:13;4.30;;;2.90;;
2618;SDS011;1319;52.346;13.096;2023-05-29T07:03:38;6.60;;;2.67;;
2618;SDS011;1319;52.346;13.096;2023-05-29T07:06:04;5.97;;;2.43;;
2618;SDS011;1319;52.346;13.096;2023-05-29T07:08:29;2.73;;;2.43;;
2618;SDS011;1319;52.346;13.096;2023-05-29T07:10:54;3.07;;;2.47;;
2618;SDS011;1319;52.346;13.096;2023-05-29T07:13:20;2.73;;;2.50;;
2618;SDS011;1319;52.346;13.096;2023-05-29T07:15:45;2.57;;;2.37;;
2618;SDS011;1319;52.346;13.096;2023-05-29T07:18:10;2.47;;;2.27;;
2618;SDS011;1319;52.346;13.096;2023-05-29T07:20:36;4.73;;;2.70;;
2618;SDS011;1319;52.346;13.096;2023-05-29T07:23:02;5.70;;;2.60;;
2618;SDS011;1319;52.346;13.096;2023-05-29T07:25:27;4.80;;;2.40;;
2618;SDS011;1319;52.346;13.096;2023-05-29T07:27:52;2.80;;;2.40;;
2618;SDS011;1319;52.346;13.096;2023-05-29T07:30:18;6.90;;;2.50;;
2618;SDS011;1319;52.346;13.096;2023-05-29T07:32:43;7.20;;;2.73;;
2618;SDS011;1319;52.346;13.096;2023-05-29T07:35:08;4.20;;;2.30;;
2618;SDS011;1319;52.346;13.096;2023-05-29T07:37:34;4.03;;;2.33;;
2618;SDS011;1319;52.346;13.096;2023-05-29T07:39:59;3.30;;;2.37;;
2618;SDS011;1319;52.346;13.096;2023-05-29T07:42:25;2.37;;;2.10;;
2618;SDS011;1319;52.346;13.096;2023-05-29T07:44:50;2.13;;;1.90;;
2618;SDS011;1319;52.346;13.096;2023-05-29T07:47:15;2.80;;;2.13;;
2618;SDS011;1319;52.346;13.096;2023-05-29T07:49:40;2.83;;;2.30;;
2618;SDS011;1319;52.346;13.096;2023-05-29T07:52:06;4.13;;;2.10;;
2618;SDS011;1319;52.346;13.096;2023-05-29T07:54:31;3.53;;;2.30;;
2618;SDS011;1319;52.346;13.096;2023-05-29T07:56:58;2.53;;;2.10;;
2618;SDS011;1319;52.346;13.096;2023-05-29T07:59:23;3.53;;;2.30;;
2618;SDS011;1319;52.346;13.096;2023-05-29T08:01:48;4.30;;;2.37;;
2618;SDS011;1319;52.346;13.096;2023-05-29T08:04:14;2.87;;;2.00;;
2618;SDS011;1319;52.346;13.096;2023-05-29T08:06:40;3.13;;;2.20;;
2618;SDS011;1319;52.346;13.096;2023-05-29T08:09:07;3.20;;;2.30;;
2618;SDS011;1319;52.346;13.096;2023-05-29T08:11:32;2.80;;;2.10;;
2618;SDS011;1319;52.346;13.096;2023-05-29T08:13:58;2.33;;;2.10;;
2618;SDS011;1319;52.346;13.096;2023-05-29T08:16:23;2.57;;;2.10;;
2618;SDS011;1319;52.346;13.096;2023-05-29T08:18:48;3.40;;;2.10;;
2618;SDS011;1319;52.346;13.096;2023-05-29T08:21:13;2.53;;;2.33;;
2618;SDS011;1319;52.346;13.096;2023-05-29T08:23:38;3.57;;;2.47;;
2618;SDS011;1319;52.346;13.096;2023-05-29T08:26:04;5.90;;;2.00;;
2618;SDS011;1319;52.346;13.096;2023-05-29T08:28:29;3.03;;;2.30;;
2618;SDS011;1319;52.346;13.096;2023-05-29T08:30:55;4.60;;;2.30;;
2618;SDS011;1319;52.346;13.096;2023-05-29T08:33:20;3.00;;;2.03;;
2618;SDS011;1319;52.346;13.096;2023-05-29T08:35:45;2.43;;;2.23;;
2618;SDS011;1319;52.346;13.096;2023-05-29T08:38:10;7.93;;;3.27;;
2618;SDS011;1319;52.346;13.096;2023-05-29T08:40:36;3.80;;;2.30;;
2618;SDS011;1319;52.346;13.096;2023-05-29T08:45:40;2.97;;;2.27;;
2618;SDS011;1319;52.346;13.096;2023-05-29T08:48:07;2.83;;;1.93;;
2618;SDS011;1319;52.346;13.096;2023-05-29T08:50:33;3.43;;;2.47;;
2618;SDS011;1319;52.346;13.096;2023-05-29T08:52:59;5.27;;;2.47;;
2618;SDS011;1319;52.346;13.096;2023-05-29T08:55:25;3.10;;;2.40;;
2618;SDS011;1319;52.346;13.096;2023-05-29T08:57:50;3.13;;;2.50;;
2618;SDS011;1319;52.346;13.096;2023-05-29T09:00:15;3.80;;;2.30;;
2618;SDS011;1319;52.346;13.096;2023-05-29T09:02:43;4.03;;;2.37;;
2618;SDS011;1319;52.346;13.096;2023-05-29T09:05:11;4.17;;;2.53;;
2618;SDS011;1319;52.346;13.096;2023-05-29T09:07:38;3.33;;;2.27;;
2618;SDS011;1319;52.346;13.096;2023-05-29T09:10:05;2.47;;;2.30;;
2618;SDS011;1319;52.346;13.096;2023-05-29T09:12:31;3.33;;;2.50;;
2618;SDS011;1319;52.346;13.096;2023-05-29T09:14:56;2.60;;;2.40;;
2618;SDS011;1319;52.346;13.096;2023-05-29T09:17:21;2.70;;;2.50;;
2618;SDS011;1319;52.346;13.096;2023-05-29T09:19:47;3.07;;;2.70;;
2618;SDS011;1319;52.346;13.096;2023-05-29T09:22:13;7.23;;;2.47;;
2618;SDS011;1319;52.346;13.096;2023-05-29T09:24:40;5.07;;;2.60;;
2618;SDS011;1319;52.346;13.096;2023-05-29T09:27:05;5.03;;;2.37;;
2618;SDS011;1319;52.346;13.096;2023-05-29T09:29:42;2.53;;;2.33;;
2618;SDS011;1319;52.346;13.096;2023-05-29T09:32:08;3.87;;;2.20;;
2618;SDS011;1319;52.346;13.096;2023-05-29T09:34:33;6.27;;;2.53;;
2618;SDS011;1319;52.346;13.096;2023-05-29T09:37:06;3.63;;;2.60;;
2618;SDS011;1319;52.346;13.096;2023-05-29T09:39:34;3.77;;;2.50;;
2618;SDS011;1319;52.346;13.096;2023-05-29T09:42:00;2.80;;;2.30;;
2618;SDS011;1319;52.346;13.096;2023-05-29T09:44:26;2.97;;;2.50;;
2618;SDS011;1319;52.346;13.096;2023-05-29T09:46:56;7.23;;;3.17;;
2618;SDS011;1319;52.346;13.096;2023-05-29T09:49:22;4.77;;;2.67;;
2618;SDS011;1319;52.346;13.096;2023-05-29T09:51:47;3.77;;;2.87;;
2618;SDS011;1319;52.346;13.096;2023-05-29T09:54:16;3.43;;;2.37;;
2618;SDS011;1319;52.346;13.096;2023-05-29T09:56:42;2.97;;;2.40;;
2618;SDS011;1319;52.346;13.096;2023-05-29T09:59:09;7.23;;;2.60;;
2618;SDS011;1319;52.346;13.096;2023-05-29T10:01:35;6.70;;;2.33;;
2618;SDS011;1319;52.346;13.096;2023-05-29T10:04:00;9.73;;;3.30;;
2618;SDS011;1319;52.346;13.096;2023-05-29T10:06:27;4.35;;;2.83;;
2618;SDS011;1319;52.346;13.096;2023-05-29T10:08:54;6.15;;;2.78;;
2618;SDS011;1319;52.346;13.096;2023-05-29T10:11:21;6.38;;;2.85;;
2618;SDS011;1319;52.346;13.096;2023-05-29T10:13:49;3.65;;;2.50;;
2618;SDS011;1319;52.346;13.096;2023-05-29T10:16:16;3.65;;;2.47;;
2618;SDS011;1319;52.346;13.096;2023-05-29T10:18:46;4.65;;;2.75;;
2618;SDS011;1319;52.346;13.096;2023-05-29T10:21:14;6.88;;;2.97;;
2618;SDS011;1319;52.346;13.096;2023-05-29T10:23:40;3.47;;;2.58;;
2618;SDS011;1319;52.346;13.096;2023-05-29T10:26:26;3.03;;;2.67;;
2618;SDS011;1319;52.346;13.096;2023-05-29T10:31:26;3.83;;;2.83;;
2618;SDS011;1319;52.346;13.096;2023-05-29T10:34:01;4.68;;;2.95;;
2618;SDS011;1319;52.346;13.096;2023-05-29T10:36:29;3.83;;;2.95;;
2618;SDS011;1319;52.346;13.096;2023-05-29T10:38:55;3.92;;;3.00;;
2618;SDS011;1319;52.346;13.096;2023-05-29T10:43:55;5.00;;;2.70;;
2618;SDS011;1319;52.346;13.096;2023-05-29T10:46:20;4.10;;;3.05;;
2618;SDS011;1319;52.346;13.096;2023-05-29T10:48:46;3.13;;;2.72;;
2618;SDS011;1319;52.346;13.096;2023-05-29T10:51:27;3.45;;;2.72;;
2618;SDS011;1319;52.346;13.096;2023-05-29T10:53:52;7.15;;;2.50;;
2618;SDS011;1319;52.346;13.096;2023-05-29T10:56:27;2.85;;;2.63;;
2618;SDS011;1319;52.346;13.096;2023-05-29T10:58:54;3.95;;;2.97;;
2618;SDS011;1319;52.346;13.096;2023-05-29T11:01:23;8.13;;;3.30;;
2618;SDS011;1319;52.346;13.096;2023-05-29T11:03:48;5.80;;;2.97;;
2618;SDS011;1319;52.346;13.096;2023-05-29T11:06:20;6.15;;;2.92;;
2618;SDS011;1319;52.346;13.096;2023-05-29T11:08:47;7.25;;;3.08;;
2618;SDS011;1319;52.346;13.096;2023-05-29T11:13:52;4.97;;;2.90;;
2618;SDS011;1319;52.346;13.096;2023-05-29T11:16:35;11.02;;;3.03;;
2618;SDS011;1319;52.346;13.096;2023-05-29T11:19:04;4.38;;;2.60;;
2618;SDS011;1319;52.346;13.096;2023-05-29T11:23:57;5.05;;;2.78;;
2618;SDS011;1319;52.346;13.096;2023-05-29T11:26:23;2.83;;;2.60;;
2618;SDS011;1319;52.346;13.096;2023-05-29T11:28:49;6.15;;;2.97;;
2618;SDS011;1319;52.346;13.096;2023-05-29T11:31:15;2.97;;;2.63;;
2618;SDS011;1319;52.346;13.096;2023-05-29T11:33:41;3.45;;;2.55;;
2618;SDS011;1319;52.346;13.096;2023-05-29T11:36:12;3.47;;;2.90;;
2618;SDS011;1319;52.346;13.096;2023-05-29T11:38:37;3.80;;;2.60;;
2618;SDS011;1319;52.346;13.096;2023-05-29T11:41:02;4.00;;;2.58;;
2618;SDS011;1319;52.346;13.096;2023-05-29T11:43:28;4.65;;;2.65;;
2618;SDS011;1319;52.346;13.096;2023-05-29T11:45:53;5.13;;;2.63;;
2618;SDS011;1319;52.346;13.096;2023-05-29T11:48:18;4.57;;;2.50;;
2618;SDS011;1319;52.346;13.096;2023-05-29T11:50:44;2.88;;;2.33;;
2618;SDS011;1319;52.346;13.096;2023-05-29T11:53:09;6.88;;;2.72;;
2618;SDS011;1319;52.346;13.096;2023-05-29T11:55:34;4.47;;;2.50;;
2618;SDS011;1319;52.346;13.096;2023-05-29T11:58:01;3.90;;;2.65;;
2618;SDS011;1319;52.346;13.096;2023-05-29T12:00:34;4.60;;;2.28;;
2618;SDS011;1319;52.346;13.096;2023-05-29T12:03:00;17.40;;;2.95;;
2618;SDS011;1319;52.346;13.096;2023-05-29T12:05:29;6.72;;;2.95;;
2618;SDS011;1319;52.346;13.096;2023-05-29T12:07:54;4.10;;;2.53;;
2618;SDS011;1319;52.346;13.096;2023-05-29T12:10:22;5.88;;;2.75;;
2618;SDS011;1319;52.346;13.096;2023-05-29T12:12:51;8.45;;;2.80;;
2618;SDS011;1319;52.346;13.096;2023-05-29T12:15:17;5.35;;;3.03;;
2618;SDS011;1319;52.346;13.096;2023-05-29T12:17:43;7.00;;;2.80;;
2618;SDS011;1319;52.346;13.096;2023-05-29T12:20:09;4.72;;;2.55;;
2618;SDS011;1319;52.346;13.096;2023-05-29T12:22:37;4.05;;;2.80;;
2618;SDS011;1319;52.346;13.096;2023-05-29T12:25:12;3.42;;;2.65;;
2618;SDS011;1319;52.346;13.096;2023-05-29T12:27:38;3.28;;;2.60;;
2618;SDS011;1319;52.346;13.096;2023-05-29T12:30:08;5.53;;;2.58;;
2618;SDS011;1319;52.346;13.096;2023-05-29T12:32:37;6.75;;;2.80;;
2618;SDS011;1319;52.346;13.096;2023-05-29T12:35:12;4.03;;;2.20;;
2618;SDS011;1319;52.346;13.096;2023-05-29T12:37:48;4.07;;;2.78;;
2618;SDS011;1319;52.346;13.096;2023-05-29T12:40:18;4.20;;;2.58;;
2618;SDS011;1319;52.346;13.096;2023-05-29T12:42:45;4.50;;;2.67;;
2618;SDS011;1319;52.346;13.096;2023-05-29T12:45:10;6.72;;;2.92;;
2618;SDS011;1319;52.346;13.096;2023-05-29T12:47:36;3.80;;;2.53;;
2618;SDS011;1319;52.346;13.096;2023-05-29T12:50:44;5.65;;;2.90;;
2618;SDS011;1319;52.346;13.096;2023-05-29T12:52:57;5.93;;;2.55;;
2618;SDS011;1319;52.346;13.096;2023-05-29T12:55:23;5.18;;;2.55;;
2618;SDS011;1319;52.346;13.096;2023-05-29T12:57:48;3.30;;;2.45;;
2618;SDS011;1319;52.346;13.096;2023-05-29T13:00:13;8.45;;;2.65;;
2618;SDS011;1319;52.346;13.096;2023-05-29T13:02:39;5.95;;;2.55;;
2618;SDS011;1319;52.346;13.096;2023-05-29T13:05:04;16.70;;;2.80;;
2618;SDS011;1319;52.346;13.096;2023-05-29T13:07:30;5.88;;;2.50;;
2618;SDS011;1319;52.346;13.096;2023-05-29T13:09:56;6.38;;;2.20;;
2618;SDS011;1319;52.346;13.096;2023-05-29T13:12:21;3.28;;;2.30;;
2618;SDS011;1319;52.346;13.096;2023-05-29T13:14:46;5.25;;;2.30;;
2618;SDS011;1319;52.346;13.096;2023-05-29T13:17:12;7.95;;;2.50;;
2618;SDS011;1319;52.346;13.096;2023-05-29T13:19:37;3.88;;;2.58;;
2618;SDS011;1319;52.346;13.096;2023-05-29T13:22:02;5.68;;;2.60;;
2618;SDS011;1319;52.346;13.096;2023-05-29T13:24:27;5.45;;;2.80;;
2618;SDS011;1319;52.346;13.096;2023-05-29T13:26:53;4.43;;;2.30;;
2618;SDS011;1319;52.346;13.096;2023-05-29T13:29:18;5.20;;;2.60;;
2618;SDS011;1319;52.346;13.096;2023-05-29T13:31:43;6.70;;;2.20;;
2618;SDS011;1319;52.346;13.096;2023-05-29T13:34:08;5.10;;;2.40;;
2618;SDS011;1319;52.346;13.096;2023-05-29T13:36:34;3.03;;;2.40;;
2618;SDS011;1319;52.346;13.096;2023-05-29T13:39:00;2.75;;;2.10;;
2618;SDS011;1319;52.346;13.096;2023-05-29T13:41:25;3.70;;;2.50;;
2618;SDS011;1319;52.346;13.096;2023-05-29T13:43:51;2.63;;;2.40;;
2618;SDS011;1319;52.346;13.096;2023-05-29T13:46:16;6.10;;;2.20;;
2618;SDS011;1319;52.346;13.096;2023-05-29T13:48:41;3.28;;;2.40;;
2618;SDS011;1319;52.346;13.096;2023-05-29T13:51:06;3.33;;;2.40;;
2618;SDS011;1319;52.346;13.096;2023-05-29T13:53:32;2.55;;;2.15;;
2618;SDS011;1319;52.346;13.096;2023-05-29T13:55:57;4.18;;;2.60;;
2618;SDS011;1319;52.346;13.096;2023-05-29T13:58:22;5.20;;;2.10;;
2618;SDS011;1319;52.346;13.096;2023-05-29T14:00:47;3.65;;;2.13;;
2618;SDS011;1319;52.346;13.096;2023-05-29T14:03:13;8.20;;;2.35;;
2618;SDS011;1319;52.346;13.096;2023-05-29T14:05:38;5.55;;;2.42;;
2618;SDS011;1319;52.346;13.096;2023-05-29T14:08:03;3.33;;;2.10;;
2618;SDS011;1319;52.346;13.096;2023-05-29T14:10:29;3.25;;;2.28;;
2618;SDS011;1319;52.346;13.096;2023-05-29T14:12:54;3.75;;;1.98;;
2618;SDS011;1319;52.346;13.096;2023-05-29T14:15:20;7.40;;;2.38;;
2618;SDS011;1319;52.346;13.096;2023-05-29T14:17:45;2.83;;;2.15;;
2618;SDS011;1319;52.346;13.096;2023-05-29T14:20:10;4.50;;;2.72;;
2618;SDS011;1319;52.346;13.096;2023-05-29T14:22:36;4.55;;;2.60;;
2618;SDS011;1319;52.346;13.096;2023-05-29T14:25:02;6.18;;;2.38;;
2618;SDS011;1319;52.346;13.096;2023-05-29T14:27:29;9.23;;;2.20;;
2618;SDS011;1319;52.346;13.096;2023-05-29T14:29:54;4.72;;;2.22;;
2618;SDS011;1319;52.346;13.096;2023-05-29T14:32:20;6.07;;;2.00;;
2618;SDS011;1319;52.346;13.096;2023-05-29T14:34:45;4.43;;;2.05;;
2618;SDS011;1319;52.346;13.096;2023-05-29T14:37:11;6.05;;;2.45;;
2618;SDS011;1319;52.346;13.096;2023-05-29T14:39:36;3.33;;;2.47;;
2618;SDS011;1319;52.346;13.096;2023-05-29T14:42:01;3.67;;;2.28;;
2618;SDS011;1319;52.346;13.096;2023-05-29T14:44:27;4.93;;;2.30;;
2618;SDS011;1319;52.346;13.096;2023-05-29T14:46:52;7.80;;;2.25;;
2618;SDS011;1319;52.346;13.096;2023-05-29T14:49:17;5.75;;;2.15;;
2618;SDS011;1319;52.346;13.096;2023-05-29T14:51:43;3.80;;;2.40;;
2618;SDS011;1319;52.346;13.096;2023-05-29T14:54:09;4.55;;;2.20;;
2618;SDS011;1319;52.346;13.096;2023-05-29T14:56:34;4.88;;;1.95;;
2618;SDS011;1319;52.346;13.096;2023-05-29T14:59:00;2.55;;;1.90;;
2618;SDS011;1319;52.346;13.096;2023-05-29T15:01:25;5.90;;;2.40;;
2618;SDS011;1319;52.346;13.096;2023-05-29T15:03:50;2.20;;;2.00;;
2618;SDS011;1319;52.346;13.096;2023-05-29T15:06:16;3.25;;;1.95;;
2618;SDS011;1319;52.346;13.096;2023-05-29T15:08:41;2.97;;;2.00;;
2618;SDS011;1319;52.346;13.096;2023-05-29T15:11:08;4.57;;;2.20;;
2618;SDS011;1319;52.346;13.096;2023-05-29T15:13:34;3.30;;;1.83;;
2618;SDS011;1319;52.346;13.096;2023-05-29T15:15:59;4.25;;;2.00;;
2618;SDS011;1319;52.346;13.096;2023-05-29T15:18:25;3.05;;;1.88;;